sensor_id;sensor_type;location;lat;lon;timestamp;pressure;altitude;pressure_sealevel;temperature;humidity
40075;BME280;26529;51.530;11.754;2022-07-30T00:00:47;100093.56;;;25.03;38.57
40075;BME280;26529;51.530;11.754;2022-07-30T00:03:12;100095.56;;;25.01;38.53
40075;BME280;26529;51.530;11.754;2022-07-30T00:05:38;100093.00;;;24.99;38.52
40075;BME280;26529;51.530;11.754;2022-07-30T00:08:03;100090.59;;;24.96;38.61
40075;BME280;26529;51.530;11.754;2022-07-30T00:10:29;100100.50;;;24.96;38.65
40075;BME280;26529;51.530;11.754;2022-07-30T00:12:55;100103.88;;;24.98;38.72
40075;BME280;26529;51.530;11.754;2022-07-30T00:15:22;100097.13;;;24.93;38.78
40075;BME280;26529;51.530;11.754;2022-07-30T00:17:47;100106.13;;;24.92;38.75
40075;BME280;26529;51.530;11.754;2022-07-30T00:20:13;100102.47;;;24.93;38.76
40075;BME280;26529;51.530;11.754;2022-07-30T00:22:38;100102.72;;;24.90;39.02
40075;BME280;26529;51.530;11.754;2022-07-30T00:25:05;100102.88;;;24.89;39.18
40075;BME280;26529;51.530;11.754;2022-07-30T00:27:30;100102.03;;;24.88;39.36
40075;BME280;26529;51.530;11.754;2022-07-30T00:29:59;100094.81;;;24.89;39.36
40075;BME280;26529;51.530;11.754;2022-07-30T00:32:24;100095.13;;;24.86;39.45
40075;BME280;26529;51.530;11.754;2022-07-30T00:34:50;100094.25;;;24.85;39.42
40075;BME280;26529;51.530;11.754;2022-07-30T00:37:15;100100.59;;;24.84;39.56
40075;BME280;26529;51.530;11.754;2022-07-30T00:39:41;100101.59;;;24.83;39.51
40075;BME280;26529;51.530;11.754;2022-07-30T00:42:07;100098.22;;;24.81;39.62
40075;BME280;26529;51.530;11.754;2022-07-30T00:44:32;100092.88;;;24.81;39.44
40075;BME280;26529;51.530;11.754;2022-07-30T00:46:58;100095.78;;;24.78;39.73
40075;BME280;26529;51.530;11.754;2022-07-30T00:49:24;100097.63;;;24.77;39.90
40075;BME280;26529;51.530;11.754;2022-07-30T00:51:50;100107.78;;;24.74;39.98
40075;BME280;26529;51.530;11.754;2022-07-30T00:54:16;100109.16;;;24.68;40.26
40075;BME280;26529;51.530;11.754;2022-07-30T00:56:42;100115.25;;;24.70;40.07
40075;BME280;26529;51.530;11.754;2022-07-30T00:59:08;100113.41;;;24.71;40.18
40075;BME280;26529;51.530;11.754;2022-07-30T01:01:34;100117.06;;;24.70;40.25
40075;BME280;26529;51.530;11.754;2022-07-30T01:04:00;100119.75;;;24.70;40.13
40075;BME280;26529;51.530;11.754;2022-07-30T01:06:26;100120.75;;;24.69;40.26
40075;BME280;26529;51.530;11.754;2022-07-30T01:08:52;100115.81;;;24.64;40.31
40075;BME280;26529;51.530;11.754;2022-07-30T01:11:19;100120.44;;;24.62;40.39
40075;BME280;26529;51.530;11.754;2022-07-30T01:13:44;100112.38;;;24.62;40.59
40075;BME280;26529;51.530;11.754;2022-07-30T01:16:10;100111.13;;;24.56;40.50
40075;BME280;26529;51.530;11.754;2022-07-30T01:18:36;100108.56;;;24.55;40.78
40075;BME280;26529;51.530;11.754;2022-07-30T01:21:31;100104.91;;;24.56;40.56
40075;BME280;26529;51.530;11.754;2022-07-30T01:24:07;100107.88;;;24.52;40.56
40075;BME280;26529;51.530;11.754;2022-07-30T01:26:36;100106.06;;;24.53;40.76
40075;BME280;26529;51.530;11.754;2022-07-30T01:29:02;100113.66;;;24.48;40.78
40075;BME280;26529;51.530;11.754;2022-07-30T01:31:28;100102.19;;;24.46;40.89
40075;BME280;26529;51.530;11.754;2022-07-30T01:33:55;100100.25;;;24.48;40.69
40075;BME280;26529;51.530;11.754;2022-07-30T01:36:21;100105.72;;;24.46;40.74
40075;BME280;26529;51.530;11.754;2022-07-30T01:38:48;100101.50;;;24.44;40.92
40075;BME280;26529;51.530;11.754;2022-07-30T01:41:16;100102.47;;;24.43;41.02
40075;BME280;26529;51.530;11.754;2022-07-30T01:43:44;100106.28;;;24.40;41.06
40075;BME280;26529;51.530;11.754;2022-07-30T01:46:12;100103.03;;;24.36;41.19
40075;BME280;26529;51.530;11.754;2022-07-30T01:48:41;100100.09;;;24.39;41.04
40075;BME280;26529;51.530;11.754;2022-07-30T01:51:11;100103.03;;;24.36;41.13
40075;BME280;26529;51.530;11.754;2022-07-30T01:53:39;100100.63;;;24.33;41.37
40075;BME280;26529;51.530;11.754;2022-07-30T01:56:08;100103.31;;;24.33;41.27
40075;BME280;26529;51.530;11.754;2022-07-30T01:58:35;100092.72;;;24.32;41.25
40075;BME280;26529;51.530;11.754;2022-07-30T02:01:11;100106.25;;;24.30;41.34
40075;BME280;26529;51.530;11.754;2022-07-30T02:03:37;100107.94;;;24.31;41.36
40075;BME280;26529;51.530;11.754;2022-07-30T02:06:08;100113.59;;;24.28;41.05
40075;BME280;26529;51.530;11.754;2022-07-30T02:08:40;100108.47;;;24.25;41.38
40075;BME280;26529;51.530;11.754;2022-07-30T02:11:11;100116.78;;;24.22;41.46
40075;BME280;26529;51.530;11.754;2022-07-30T02:13:49;100123.16;;;24.21;41.30
40075;BME280;26529;51.530;11.754;2022-07-30T02:16:23;100124.84;;;24.22;41.32
40075;BME280;26529;51.530;11.754;2022-07-30T02:18:56;100113.66;;;24.17;41.49
40075;BME280;26529;51.530;11.754;2022-07-30T02:21:34;100122.56;;;24.17;41.43
40075;BME280;26529;51.530;11.754;2022-07-30T02:24:05;100115.53;;;24.16;41.37
40075;BME280;26529;51.530;11.754;2022-07-30T02:26:33;100115.66;;;24.15;41.49
40075;BME280;26529;51.530;11.754;2022-07-30T02:29:01;100115.91;;;24.11;41.49
40075;BME280;26529;51.530;11.754;2022-07-30T02:31:28;100120.56;;;24.09;41.61
40075;BME280;26529;51.530;11.754;2022-07-30T02:33:59;100129.78;;;24.05;41.54
40075;BME280;26529;51.530;11.754;2022-07-30T02:36:27;100141.91;;;23.99;41.96
40075;BME280;26529;51.530;11.754;2022-07-30T02:38:55;100145.44;;;24.00;41.75
40075;BME280;26529;51.530;11.754;2022-07-30T02:41:23;100155.28;;;23.99;42.06
40075;BME280;26529;51.530;11.754;2022-07-30T02:43:51;100156.16;;;24.00;41.88
40075;BME280;26529;51.530;11.754;2022-07-30T02:46:18;100157.38;;;23.96;42.18
40075;BME280;26529;51.530;11.754;2022-07-30T02:49:12;100172.75;;;23.94;42.05
40075;BME280;26529;51.530;11.754;2022-07-30T02:51:41;100171.75;;;23.95;42.25
40075;BME280;26529;51.530;11.754;2022-07-30T02:54:07;100174.84;;;23.90;42.10
40075;BME280;26529;51.530;11.754;2022-07-30T02:56:35;100180.19;;;23.90;42.31
40075;BME280;26529;51.530;11.754;2022-07-30T02:59:02;100174.25;;;23.87;42.22
40075;BME280;26529;51.530;11.754;2022-07-30T03:01:30;100177.16;;;23.83;42.55
40075;BME280;26529;51.530;11.754;2022-07-30T03:03:55;100174.97;;;23.89;42.33
40075;BME280;26529;51.530;11.754;2022-07-30T03:06:22;100172.69;;;23.84;42.33
40075;BME280;26529;51.530;11.754;2022-07-30T03:08:50;100169.13;;;23.83;42.18
40075;BME280;26529;51.530;11.754;2022-07-30T03:11:17;100166.59;;;23.82;42.34
40075;BME280;26529;51.530;11.754;2022-07-30T03:13:43;100164.88;;;23.81;42.45
40075;BME280;26529;51.530;11.754;2022-07-30T03:16:09;100156.28;;;23.77;42.56
40075;BME280;26529;51.530;11.754;2022-07-30T03:18:36;100150.91;;;23.77;42.39
40075;BME280;26529;51.530;11.754;2022-07-30T03:21:05;100152.19;;;23.73;42.58
40075;BME280;26529;51.530;11.754;2022-07-30T03:23:33;100154.72;;;23.75;42.48
40075;BME280;26529;51.530;11.754;2022-07-30T03:26:02;100155.81;;;23.72;42.44
40075;BME280;26529;51.530;11.754;2022-07-30T03:28:30;100150.22;;;23.75;42.55
40075;BME280;26529;51.530;11.754;2022-07-30T03:30:57;100150.84;;;23.67;42.52
40075;BME280;26529;51.530;11.754;2022-07-30T03:33:23;100156.38;;;23.66;42.74
40075;BME280;26529;51.530;11.754;2022-07-30T03:35:50;100156.38;;;23.66;42.70
40075;BME280;26529;51.530;11.754;2022-07-30T03:38:17;100155.91;;;23.61;42.41
40075;BME280;26529;51.530;11.754;2022-07-30T03:40:43;100158.56;;;23.61;42.42
40075;BME280;26529;51.530;11.754;2022-07-30T03:43:10;100160.50;;;23.58;42.35
40075;BME280;26529;51.530;11.754;2022-07-30T03:45:40;100166.25;;;23.54;42.26
40075;BME280;26529;51.530;11.754;2022-07-30T03:48:08;100164.44;;;23.54;42.42
40075;BME280;26529;51.530;11.754;2022-07-30T03:50:38;100162.75;;;23.53;42.40
40075;BME280;26529;51.530;11.754;2022-07-30T03:53:06;100152.03;;;23.53;42.27
40075;BME280;26529;51.530;11.754;2022-07-30T03:55:40;100157.63;;;23.50;42.67
40075;BME280;26529;51.530;11.754;2022-07-30T03:58:41;100152.56;;;23.47;42.35
40075;BME280;26529;51.530;11.754;2022-07-30T04:01:08;100155.94;;;23.49;42.28
40075;BME280;26529;51.530;11.754;2022-07-30T04:03:34;100159.00;;;23.44;42.29
40075;BME280;26529;51.530;11.754;2022-07-30T04:06:02;100161.81;;;23.43;42.36
40075;BME280;26529;51.530;11.754;2022-07-30T04:08:28;100164.50;;;23.43;42.48
40075;BME280;26529;51.530;11.754;2022-07-30T04:10:54;100160.38;;;23.39;42.66
40075;BME280;26529;51.530;11.754;2022-07-30T04:13:38;100167.44;;;23.40;42.46
40075;BME280;26529;51.530;11.754;2022-07-30T04:16:09;100171.22;;;23.37;42.59
40075;BME280;26529;51.530;11.754;2022-07-30T04:18:39;100156.25;;;23.35;42.34
40075;BME280;26529;51.530;11.754;2022-07-30T04:21:09;100160.63;;;23.36;42.15
40075;BME280;26529;51.530;11.754;2022-07-30T04:23:35;100172.31;;;23.35;42.53
40075;BME280;26529;51.530;11.754;2022-07-30T04:26:01;100174.72;;;23.38;42.35
40075;BME280;26529;51.530;11.754;2022-07-30T04:28:28;100174.59;;;23.28;42.46
40075;BME280;26529;51.530;11.754;2022-07-30T04:30:54;100177.91;;;23.31;42.23
40075;BME280;26529;51.530;11.754;2022-07-30T04:33:19;100184.47;;;23.27;42.51
40075;BME280;26529;51.530;11.754;2022-07-30T04:36:07;100182.91;;;23.25;42.67
40075;BME280;26529;51.530;11.754;2022-07-30T04:38:34;100182.19;;;23.23;42.60
40075;BME280;26529;51.530;11.754;2022-07-30T04:41:00;100170.03;;;23.18;42.63
40075;BME280;26529;51.530;11.754;2022-07-30T04:43:30;100169.03;;;23.20;42.45
40075;BME280;26529;51.530;11.754;2022-07-30T04:45:56;100170.88;;;23.19;42.64
40075;BME280;26529;51.530;11.754;2022-07-30T04:48:22;100163.81;;;23.18;42.56
40075;BME280;26529;51.530;11.754;2022-07-30T04:51:00;100161.28;;;23.16;42.77
40075;BME280;26529;51.530;11.754;2022-07-30T04:53:30;100162.38;;;23.14;42.78
40075;BME280;26529;51.530;11.754;2022-07-30T04:55:59;100159.00;;;23.12;42.81
40075;BME280;26529;51.530;11.754;2022-07-30T04:58:28;100162.63;;;23.11;42.77
40075;BME280;26529;51.530;11.754;2022-07-30T05:00:56;100150.50;;;23.07;42.88
40075;BME280;26529;51.530;11.754;2022-07-30T05:03:30;100156.84;;;23.06;43.06
40075;BME280;26529;51.530;11.754;2022-07-30T05:05:56;100164.59;;;23.09;43.10
40075;BME280;26529;51.530;11.754;2022-07-30T05:08:24;100158.03;;;23.01;43.20
40075;BME280;26529;51.530;11.754;2022-07-30T05:10:50;100151.34;;;23.07;43.28
40075;BME280;26529;51.530;11.754;2022-07-30T05:13:15;100154.66;;;22.99;43.43
40075;BME280;26529;51.530;11.754;2022-07-30T05:15:42;100151.75;;;22.91;43.54
40075;BME280;26529;51.530;11.754;2022-07-30T05:18:10;100149.06;;;22.91;43.58
40075;BME280;26529;51.530;11.754;2022-07-30T05:20:39;100138.53;;;22.89;43.54
40075;BME280;26529;51.530;11.754;2022-07-30T05:23:11;100131.47;;;22.88;43.91
40075;BME280;26529;51.530;11.754;2022-07-30T05:25:39;100139.63;;;22.87;44.04
40075;BME280;26529;51.530;11.754;2022-07-30T05:28:15;100135.97;;;22.88;43.97
40075;BME280;26529;51.530;11.754;2022-07-30T05:30:42;100135.38;;;22.84;43.98
40075;BME280;26529;51.530;11.754;2022-07-30T05:33:11;100129.44;;;22.81;43.98
40075;BME280;26529;51.530;11.754;2022-07-30T05:35:36;100134.78;;;22.81;44.07
40075;BME280;26529;51.530;11.754;2022-07-30T05:38:02;100125.78;;;22.82;44.08
40075;BME280;26529;51.530;11.754;2022-07-30T05:40:36;100124.31;;;22.77;44.35
40075;BME280;26529;51.530;11.754;2022-07-30T05:43:20;100129.22;;;22.72;44.57
40075;BME280;26529;51.530;11.754;2022-07-30T05:45:45;100132.59;;;22.74;44.22
40075;BME280;26529;51.530;11.754;2022-07-30T05:48:11;100139.75;;;22.74;44.38
40075;BME280;26529;51.530;11.754;2022-07-30T05:50:36;100141.22;;;22.78;44.16
40075;BME280;26529;51.530;11.754;2022-07-30T05:53:02;100140.00;;;22.71;44.26
40075;BME280;26529;51.530;11.754;2022-07-30T05:55:50;100130.19;;;22.71;44.29
40075;BME280;26529;51.530;11.754;2022-07-30T06:01:04;100147.06;;;22.72;44.34
40075;BME280;26529;51.530;11.754;2022-07-30T06:03:31;100146.72;;;22.65;44.69
40075;BME280;26529;51.530;11.754;2022-07-30T06:06:16;100142.69;;;22.59;44.71
40075;BME280;26529;51.530;11.754;2022-07-30T06:08:42;100157.88;;;22.70;44.30
40075;BME280;26529;51.530;11.754;2022-07-30T06:11:09;100159.22;;;22.65;44.55
40075;BME280;26529;51.530;11.754;2022-07-30T06:13:37;100158.50;;;22.62;44.66
40075;BME280;26529;51.530;11.754;2022-07-30T06:16:03;100165.88;;;22.70;44.42
40075;BME280;26529;51.530;11.754;2022-07-30T06:18:29;100168.31;;;22.62;44.73
40075;BME280;26529;51.530;11.754;2022-07-30T06:20:55;100169.78;;;22.66;44.44
40075;BME280;26529;51.530;11.754;2022-07-30T06:23:44;100169.78;;;22.66;44.38
40075;BME280;26529;51.530;11.754;2022-07-30T06:26:17;100173.44;;;22.54;44.66
40075;BME280;26529;51.530;11.754;2022-07-30T06:28:42;100174.16;;;22.56;44.62
40075;BME280;26529;51.530;11.754;2022-07-30T06:31:28;100183.88;;;22.57;44.43
40075;BME280;26529;51.530;11.754;2022-07-30T06:33:54;100187.28;;;22.59;44.80
40075;BME280;26529;51.530;11.754;2022-07-30T06:36:20;100188.00;;;22.61;44.65
40075;BME280;26529;51.530;11.754;2022-07-30T06:38:57;100192.16;;;22.54;44.96
40075;BME280;26529;51.530;11.754;2022-07-30T06:41:35;100197.97;;;22.59;44.48
40075;BME280;26529;51.530;11.754;2022-07-30T06:44:01;100204.53;;;22.55;44.48
40075;BME280;26529;51.530;11.754;2022-07-30T06:46:49;100205.50;;;22.54;44.51
40075;BME280;26529;51.530;11.754;2022-07-30T06:49:17;100207.91;;;22.57;44.58
40075;BME280;26529;51.530;11.754;2022-07-30T06:51:42;100212.31;;;22.58;44.30
40075;BME280;26529;51.530;11.754;2022-07-30T06:54:08;100212.81;;;22.52;44.38
40075;BME280;26529;51.530;11.754;2022-07-30T06:56:58;100217.16;;;22.53;44.48
40075;BME280;26529;51.530;11.754;2022-07-30T06:59:23;100219.84;;;22.53;44.63
40075;BME280;26529;51.530;11.754;2022-07-30T07:02:10;100221.72;;;22.50;44.36
40075;BME280;26529;51.530;11.754;2022-07-30T07:05:08;100230.53;;;22.53;44.48
40075;BME280;26529;51.530;11.754;2022-07-30T07:07:34;100228.47;;;22.56;44.47
40075;BME280;26529;51.530;11.754;2022-07-30T07:10:00;100227.84;;;22.53;44.39
40075;BME280;26529;51.530;11.754;2022-07-30T07:12:48;100230.88;;;22.48;44.47
40075;BME280;26529;51.530;11.754;2022-07-30T07:15:17;100226.63;;;22.57;44.44
40075;BME280;26529;51.530;11.754;2022-07-30T07:17:43;100233.41;;;22.49;44.77
40075;BME280;26529;51.530;11.754;2022-07-30T07:20:24;100221.88;;;22.49;44.38
40075;BME280;26529;51.530;11.754;2022-07-30T07:22:57;100217.63;;;22.46;44.58
40075;BME280;26529;51.530;11.754;2022-07-30T07:25:22;100230.00;;;22.47;44.89
40075;BME280;26529;51.530;11.754;2022-07-30T07:27:49;100221.00;;;22.48;44.54
40075;BME280;26529;51.530;11.754;2022-07-30T07:30:14;100222.72;;;22.49;44.38
40075;BME280;26529;51.530;11.754;2022-07-30T07:32:40;100216.66;;;22.47;44.38
40075;BME280;26529;51.530;11.754;2022-07-30T07:35:06;100220.81;;;22.52;44.38
40075;BME280;26529;51.530;11.754;2022-07-30T07:37:34;100221.97;;;22.47;44.62
40075;BME280;26529;51.530;11.754;2022-07-30T07:40:02;100220.81;;;22.52;44.47
40075;BME280;26529;51.530;11.754;2022-07-30T07:42:30;100227.72;;;22.54;44.50
40075;BME280;26529;51.530;11.754;2022-07-30T07:44:56;100221.72;;;22.50;44.53
40075;BME280;26529;51.530;11.754;2022-07-30T07:47:22;100233.41;;;22.49;44.69
40075;BME280;26529;51.530;11.754;2022-07-30T07:50:02;100233.03;;;22.43;44.92
40075;BME280;26529;51.530;11.754;2022-07-30T07:52:28;100241.31;;;22.51;44.66
40075;BME280;26529;51.530;11.754;2022-07-30T07:54:54;100245.41;;;22.44;44.91
40075;BME280;26529;51.530;11.754;2022-07-30T07:57:20;100248.44;;;22.50;44.84
40075;BME280;26529;51.530;11.754;2022-07-30T07:59:46;100240.44;;;22.50;44.89
40075;BME280;26529;51.530;11.754;2022-07-30T08:02:17;100244.06;;;22.49;44.74
40075;BME280;26529;51.530;11.754;2022-07-30T08:04:59;100243.88;;;22.53;44.73
40075;BME280;26529;51.530;11.754;2022-07-30T08:07:41;100246.28;;;22.44;45.13
40075;BME280;26529;51.530;11.754;2022-07-30T08:10:25;100247.72;;;22.48;44.66
40075;BME280;26529;51.530;11.754;2022-07-30T08:13:20;100252.88;;;22.52;44.67
40075;BME280;26529;51.530;11.754;2022-07-30T08:16:08;100255.56;;;22.52;45.06
40075;BME280;26529;51.530;11.754;2022-07-30T08:18:53;100249.34;;;22.51;44.86
40075;BME280;26529;51.530;11.754;2022-07-30T08:21:28;100247.84;;;22.47;44.99
40075;BME280;26529;51.530;11.754;2022-07-30T08:23:53;100248.69;;;22.47;44.97
40075;BME280;26529;51.530;11.754;2022-07-30T08:26:19;100252.88;;;22.52;44.73
40075;BME280;26529;51.530;11.754;2022-07-30T08:28:44;100257.44;;;22.49;45.07
40075;BME280;26529;51.530;11.754;2022-07-30T08:31:11;100256.72;;;22.47;44.85
40075;BME280;26529;51.530;11.754;2022-07-30T08:33:36;100264.19;;;22.55;44.97
40075;BME280;26529;51.530;11.754;2022-07-30T08:36:03;100256.47;;;22.50;44.89
40075;BME280;26529;51.530;11.754;2022-07-30T08:38:29;100262.78;;;22.49;45.04
40075;BME280;26529;51.530;11.754;2022-07-30T08:40:54;100264.72;;;22.47;45.11
40075;BME280;26529;51.530;11.754;2022-07-30T08:43:23;100269.09;;;22.48;44.86
40075;BME280;26529;51.530;11.754;2022-07-30T08:45:50;100262.06;;;22.47;45.16
40075;BME280;26529;51.530;11.754;2022-07-30T08:48:37;100272.50;;;22.50;45.04
40075;BME280;26529;51.530;11.754;2022-07-30T08:51:04;100272.03;;;22.45;45.19
40075;BME280;26529;51.530;11.754;2022-07-30T08:53:33;100279.78;;;22.48;45.06
40075;BME280;26529;51.530;11.754;2022-07-30T08:56:00;100287.81;;;22.48;45.00
40075;BME280;26529;51.530;11.754;2022-07-30T08:58:31;100286.81;;;22.49;45.00
40075;BME280;26529;51.530;11.754;2022-07-30T09:00:58;100297.50;;;22.49;45.15
40075;BME280;26529;51.530;11.754;2022-07-30T09:03:27;100300.97;;;22.52;45.00
40075;BME280;26529;51.530;11.754;2022-07-30T09:05:56;100303.72;;;22.50;45.19
40075;BME280;26529;51.530;11.754;2022-07-30T09:08:22;100294.84;;;22.49;45.19
40075;BME280;26529;51.530;11.754;2022-07-30T09:10:47;100293.50;;;22.44;45.34
40075;BME280;26529;51.530;11.754;2022-07-30T09:13:28;100295.09;;;22.46;45.21
40075;BME280;26529;51.530;11.754;2022-07-30T09:15:56;100292.44;;;22.46;45.31
40075;BME280;26529;51.530;11.754;2022-07-30T09:18:28;100288.16;;;22.44;45.34
40075;BME280;26529;51.530;11.754;2022-07-30T09:20:54;100282.81;;;22.44;45.25
40075;BME280;26529;51.530;11.754;2022-07-30T09:23:20;100287.31;;;22.43;45.31
40075;BME280;26529;51.530;11.754;2022-07-30T09:26:08;100286.81;;;22.49;45.42
40075;BME280;26529;51.530;11.754;2022-07-30T09:28:53;100301.63;;;22.42;45.57
40075;BME280;26529;51.530;11.754;2022-07-30T09:31:59;100301.63;;;22.42;45.29
40075;BME280;26529;51.530;11.754;2022-07-30T09:34:43;100294.59;;;22.41;45.53
40075;BME280;26529;51.530;11.754;2022-07-30T09:37:27;100298.25;;;22.40;45.50
40075;BME280;26529;51.530;11.754;2022-07-30T09:40:22;100295.31;;;22.43;45.47
40075;BME280;26529;51.530;11.754;2022-07-30T09:43:10;100294.84;;;22.49;45.31
40075;BME280;26529;51.530;11.754;2022-07-30T09:45:52;100294.38;;;22.44;45.22
40075;BME280;26529;51.530;11.754;2022-07-30T09:48:26;100298.84;;;22.44;45.46
40075;BME280;26529;51.530;11.754;2022-07-30T09:50:53;100300.03;;;22.40;45.50
40075;BME280;26529;51.530;11.754;2022-07-30T09:53:20;100305.75;;;22.35;45.65
40075;BME280;26529;51.530;11.754;2022-07-30T09:55:49;100302.50;;;22.43;45.61
40075;BME280;26529;51.530;11.754;2022-07-30T09:58:14;100307.94;;;22.41;45.58
40075;BME280;26529;51.530;11.754;2022-07-30T10:00:41;100322.16;;;22.42;45.48
40075;BME280;26529;51.530;11.754;2022-07-30T10:03:23;100327.53;;;22.42;45.66
40075;BME280;26529;51.530;11.754;2022-07-30T10:06:08;100323.88;;;22.43;45.75
40075;BME280;26529;51.530;11.754;2022-07-30T10:08:48;100321.56;;;22.38;45.99
40075;BME280;26529;51.530;11.754;2022-07-30T10:11:21;100326.91;;;22.38;45.56
40075;BME280;26529;51.530;11.754;2022-07-30T10:13:55;100326.75;;;22.40;45.61
40075;BME280;26529;51.530;11.754;2022-07-30T10:16:23;100323.25;;;22.39;45.67
40075;BME280;26529;51.530;11.754;2022-07-30T10:18:51;100328.59;;;22.39;45.65
40075;BME280;26529;51.530;11.754;2022-07-30T10:21:43;100335.84;;;22.37;45.75
40075;BME280;26529;51.530;11.754;2022-07-30T10:24:35;100342.78;;;22.40;45.91
40075;BME280;26529;51.530;11.754;2022-07-30T10:27:23;100339.28;;;22.39;45.65
40075;BME280;26529;51.530;11.754;2022-07-30T10:30:03;100333.19;;;22.37;45.66
40075;BME280;26529;51.530;11.754;2022-07-30T10:32:30;100337.81;;;22.35;45.87
40075;BME280;26529;51.530;11.754;2022-07-30T10:34:57;100328.59;;;22.39;45.86
40075;BME280;26529;51.530;11.754;2022-07-30T10:37:24;100334.78;;;22.40;45.81
40075;BME280;26529;51.530;11.754;2022-07-30T10:40:04;100327.13;;;22.35;45.76
40075;BME280;26529;51.530;11.754;2022-07-30T10:45:18;100313.25;;;22.30;46.05
40075;BME280;26529;51.530;11.754;2022-07-30T10:47:48;100312.31;;;22.31;46.08
40075;BME280;26529;51.530;11.754;2022-07-30T10:50:16;100311.44;;;22.30;46.09
40075;BME280;26529;51.530;11.754;2022-07-30T10:52:57;100305.53;;;22.38;46.03
40075;BME280;26529;51.530;11.754;2022-07-30T10:55:28;100317.00;;;22.27;46.25
40075;BME280;26529;51.530;11.754;2022-07-30T10:58:12;100315.59;;;22.34;45.95
40075;BME280;26529;51.530;11.754;2022-07-30T11:03:18;100324.81;;;22.30;46.35
40075;BME280;26529;51.530;11.754;2022-07-30T11:05:46;100327.13;;;22.35;46.37
40075;BME280;26529;51.530;11.754;2022-07-30T11:08:29;100336.09;;;22.34;46.27
40075;BME280;26529;51.530;11.754;2022-07-30T11:10:55;100339.28;;;22.39;46.45
40075;BME280;26529;51.530;11.754;2022-07-30T11:13:49;100351.72;;;22.27;46.60
40075;BME280;26529;51.530;11.754;2022-07-30T11:16:20;100345.09;;;22.33;46.39
40075;BME280;26529;51.530;11.754;2022-07-30T11:19:07;100350.91;;;22.27;46.56
40075;BME280;26529;51.530;11.754;2022-07-30T11:21:34;100343.41;;;22.32;46.56
40075;BME280;26529;51.530;11.754;2022-07-30T11:24:00;100348.94;;;22.29;46.65
40075;BME280;26529;51.530;11.754;2022-07-30T11:29:04;100337.31;;;22.30;46.61
40075;BME280;26529;51.530;11.754;2022-07-30T11:31:36;100340.22;;;22.27;46.65
40075;BME280;26529;51.530;11.754;2022-07-30T11:37:06;100341.91;;;22.28;46.58
40075;BME280;26529;51.530;11.754;2022-07-30T11:42:39;100337.44;;;22.28;46.97
40075;BME280;26529;51.530;11.754;2022-07-30T11:47:49;100334.16;;;22.25;47.35
40075;BME280;26529;51.530;11.754;2022-07-30T11:50:18;100333.78;;;22.29;47.23
40075;BME280;26529;51.530;11.754;2022-07-30T11:52:49;100327.00;;;22.36;47.26
40075;BME280;26529;51.530;11.754;2022-07-30T11:57:50;100324.44;;;22.35;47.51
40075;BME280;26529;51.530;11.754;2022-07-30T12:00:16;100324.81;;;22.30;47.75
40075;BME280;26529;51.530;11.754;2022-07-30T12:02:43;100322.75;;;22.34;47.49
40075;BME280;26529;51.530;11.754;2022-07-30T12:05:09;100318.88;;;22.38;47.55
40075;BME280;26529;51.530;11.754;2022-07-30T12:07:35;100322.50;;;22.37;47.44
40075;BME280;26529;51.530;11.754;2022-07-30T12:10:14;100320.09;;;22.34;47.60
40075;BME280;26529;51.530;11.754;2022-07-30T12:12:40;100321.56;;;22.38;47.80
40075;BME280;26529;51.530;11.754;2022-07-30T12:15:06;100319.25;;;22.45;47.60
40075;BME280;26529;51.530;11.754;2022-07-30T12:17:42;100324.44;;;22.35;47.84
40075;BME280;26529;51.530;11.754;2022-07-30T12:20:15;100324.69;;;22.43;47.47
40075;BME280;26529;51.530;11.754;2022-07-30T12:22:42;100317.44;;;22.45;47.58
40075;BME280;26529;51.530;11.754;2022-07-30T12:25:08;100324.09;;;22.40;47.67
40075;BME280;26529;51.530;11.754;2022-07-30T12:27:34;100330.03;;;22.43;47.75
40075;BME280;26529;51.530;11.754;2022-07-30T12:30:00;100322.66;;;22.47;47.62
40075;BME280;26529;51.530;11.754;2022-07-30T12:32:26;100330.81;;;22.45;47.85
40075;BME280;26529;51.530;11.754;2022-07-30T12:34:53;100322.53;;;22.48;48.20
40075;BME280;26529;51.530;11.754;2022-07-30T12:37:19;100314.88;;;22.44;47.81
40075;BME280;26529;51.530;11.754;2022-07-30T12:39:45;100316.47;;;22.46;47.88
40075;BME280;26529;51.530;11.754;2022-07-30T12:42:17;100317.66;;;22.42;47.83
40075;BME280;26529;51.530;11.754;2022-07-30T12:44:43;100310.41;;;22.44;48.13
40075;BME280;26529;51.530;11.754;2022-07-30T12:47:19;100307.59;;;22.46;47.78
40075;BME280;26529;51.530;11.754;2022-07-30T12:49:46;100304.47;;;22.52;48.10
40075;BME280;26529;51.530;11.754;2022-07-30T12:52:29;100303.94;;;22.47;47.92
40075;BME280;26529;51.530;11.754;2022-07-30T12:54:59;100311.84;;;22.48;47.71
40075;BME280;26529;51.530;11.754;2022-07-30T12:57:25;100302.13;;;22.47;47.85
40075;BME280;26529;51.530;11.754;2022-07-30T13:00:02;100304.56;;;22.50;47.89
40075;BME280;26529;51.530;11.754;2022-07-30T13:02:35;100308.44;;;22.46;48.09
40075;BME280;26529;51.530;11.754;2022-07-30T13:05:01;100303.13;;;22.46;48.10
40075;BME280;26529;51.530;11.754;2022-07-30T13:07:27;100299.75;;;22.56;47.99
40075;BME280;26529;51.530;11.754;2022-07-30T13:10:26;100293.16;;;22.48;48.00
40075;BME280;26529;51.530;11.754;2022-07-30T13:12:51;100294.28;;;22.57;48.10
40075;BME280;26529;51.530;11.754;2022-07-30T13:15:18;100296.72;;;22.60;48.08
40075;BME280;26529;51.530;11.754;2022-07-30T13:17:44;100299.63;;;22.57;48.20
40075;BME280;26529;51.530;11.754;2022-07-30T13:20:10;100298.78;;;22.57;48.03